createdAt,value
2022-09-21T00:00:01.390Z,2.55
2022-09-21T00:02:06.126Z,1.75
2022-09-21T00:04:09.582Z,7.38
2022-09-21T00:06:14.789Z,3.00
2022-09-21T00:08:18.022Z,1.73
2022-09-21T00:10:21.875Z,4.80
2022-09-21T00:12:25.147Z,14.68
2022-09-21T00:14:28.712Z,11.00
2022-09-21T00:16:32.935Z,5.13
2022-09-21T00:18:38.229Z,8.75
2022-09-21T00:20:44.080Z,12.50
2022-09-21T00:22:48.910Z,3.38
2022-09-21T00:24:52.277Z,3.35
2022-09-21T00:26:55.574Z,2.22
2022-09-21T00:29:00.817Z,1.10
2022-09-21T00:31:05.325Z,1.60
2022-09-21T00:33:08.557Z,1.70
2022-09-21T00:35:13.193Z,4.80
2022-09-21T00:37:16.467Z,3.95
2022-09-21T00:39:19.679Z,2.40
2022-09-21T00:41:23.308Z,10.90
2022-09-21T00:43:27.011Z,2.10
2022-09-21T00:45:31.433Z,3.25
2022-09-21T00:47:37.239Z,4.22
2022-09-21T00:49:41.529Z,3.30
2022-09-21T00:51:46.721Z,2.67
2022-09-21T00:53:54.657Z,1.52
2022-09-21T00:56:00.570Z,2.22
2022-09-21T00:58:08.463Z,3.95
2022-09-21T01:00:12.474Z,6.82
2022-09-21T01:02:15.910Z,1.40
2022-09-21T01:04:20.019Z,2.65
2022-09-21T01:06:23.489Z,2.70
2022-09-21T01:08:29.609Z,1.23
2022-09-21T01:10:40.119Z,3.90
2022-09-21T01:12:56.176Z,5.50
2022-09-21T01:15:14.932Z,11.32
2022-09-21T01:17:25.491Z,3.60
2022-09-21T01:19:43.825Z,2.70
2022-09-21T01:21:56.441Z,1.50
2022-09-21T01:24:39.181Z,1.30
2022-09-21T01:27:00.860Z,4.90
2022-09-21T01:29:17.007Z,2.80
2022-09-21T01:31:26.981Z,9.20
2022-09-21T01:33:34.483Z,2.05
2022-09-21T01:35:42.209Z,3.03
2022-09-21T01:37:50.201Z,3.58
2022-09-21T01:39:58.286Z,11.65
2022-09-21T01:42:03.784Z,7.38
2022-09-21T01:44:12.218Z,3.42
2022-09-21T01:46:19.737Z,3.28
2022-09-21T01:48:25.900Z,7.30
2022-09-21T01:50:31.597Z,5.60
2022-09-21T01:52:43.521Z,6.45
2022-09-21T01:54:52.085Z,3.05
2022-09-21T01:56:59.841Z,5.78
2022-09-21T01:59:08.873Z,4.65
2022-09-21T02:01:18.238Z,8.85
2022-09-21T02:03:23.972Z,1.80
2022-09-21T02:05:30.148Z,3.30
2022-09-21T02:07:34.894Z,11.43
2022-09-21T02:09:38.852Z,6.57
2022-09-21T02:11:43.971Z,5.38
2022-09-21T02:13:50.130Z,3.72
2022-09-21T02:16:02.309Z,3.95
2022-09-21T02:18:13.354Z,2.83
2022-09-21T02:20:21.300Z,3.10
2022-09-21T02:22:33.377Z,2.13
2022-09-21T02:24:42.316Z,4.50
2022-09-21T02:26:51.545Z,1.58
2022-09-21T02:29:02.802Z,3.20
2022-09-21T02:31:14.351Z,2.22
2022-09-21T02:33:27.814Z,2.63
2022-09-21T02:35:37.401Z,1.73
2022-09-21T02:37:47.547Z,3.22
2022-09-21T02:40:09.850Z,0.80
2022-09-21T02:42:17.947Z,2.25
2022-09-21T02:44:26.307Z,1.27
2022-09-21T02:46:35.058Z,1.67
2022-09-21T02:48:44.518Z,2.60
2022-09-21T02:50:52.127Z,2.00
2022-09-21T02:52:56.715Z,2.28
2022-09-21T02:55:00.822Z,1.35
2022-09-21T02:57:04.676Z,1.98
2022-09-21T02:59:09.075Z,2.00
2022-09-21T03:01:14.578Z,2.65
2022-09-21T03:03:20.255Z,1.30
2022-09-21T03:05:25.426Z,1.30
2022-09-21T03:07:28.699Z,1.92
2022-09-21T03:09:31.941Z,6.72
2022-09-21T03:11:36.147Z,1.92
2022-09-21T03:13:39.422Z,6.45
2022-09-21T03:15:43.897Z,2.20
2022-09-21T03:17:47.406Z,3.03
2022-09-21T03:19:50.742Z,1.80
2022-09-21T03:21:55.722Z,1.90
2022-09-21T03:23:59.010Z,1.70
2022-09-21T03:26:02.716Z,6.07
2022-09-21T03:28:06.972Z,2.45
2022-09-21T03:30:11.424Z,2.53
2022-09-21T03:32:15.445Z,1.92
2022-09-21T03:34:18.750Z,1.73
2022-09-21T03:36:22.281Z,1.35
2022-09-21T03:38:26.962Z,6.68
2022-09-21T03:40:34.245Z,8.88
2022-09-21T03:42:37.579Z,7.40
2022-09-21T03:44:41.245Z,2.17
2022-09-21T03:46:44.745Z,5.03
2022-09-21T03:48:49.605Z,2.58
2022-09-21T03:50:53.023Z,3.70
2022-09-21T03:52:56.619Z,3.55
2022-09-21T03:55:01.701Z,8.07
2022-09-21T03:57:05.159Z,3.40
2022-09-21T03:59:11.884Z,2.67
2022-09-21T04:01:17.725Z,6.22
2022-09-21T04:03:21.132Z,6.65
2022-09-21T04:05:24.451Z,4.25
2022-09-21T04:07:32.451Z,3.00
2022-09-21T04:09:35.773Z,1.50
2022-09-21T04:11:40.566Z,5.40
2022-09-21T04:13:43.983Z,3.50
2022-09-21T04:15:47.288Z,1.38
2022-09-21T04:17:53.377Z,3.50
2022-09-21T04:19:56.793Z,1.52
2022-09-21T04:22:00.087Z,2.65
2022-09-21T04:24:04.271Z,3.75
2022-09-21T04:26:07.590Z,1.90
2022-09-21T04:28:13.106Z,2.65
2022-09-21T04:30:17.358Z,3.88
2022-09-21T04:32:20.942Z,10.63
2022-09-21T04:34:24.233Z,28.58
2022-09-21T04:36:33.179Z,31.55
2022-09-21T04:38:40.626Z,34.50
2022-09-21T04:40:44.062Z,13.60
2022-09-21T04:42:52.806Z,21.00
2022-09-21T04:44:57.778Z,20.95
2022-09-21T04:47:01.378Z,11.98
2022-09-21T04:49:04.880Z,17.58
2022-09-21T04:51:09.231Z,6.00
2022-09-21T04:53:12.818Z,6.95
2022-09-21T04:55:17.904Z,5.75
2022-09-21T04:57:21.408Z,2.60
2022-09-21T04:59:24.989Z,4.03
2022-09-21T05:01:29.876Z,4.20
2022-09-21T05:03:34.003Z,3.55
2022-09-21T05:05:37.341Z,4.45
2022-09-21T05:07:43.934Z,3.88
2022-09-21T05:10:04.580Z,2.35
2022-09-21T05:12:08.385Z,2.03
2022-09-21T05:14:12.390Z,1.52
2022-09-21T05:16:16.298Z,1.02
2022-09-21T05:18:21.324Z,3.35
2022-09-21T05:20:24.782Z,6.75
2022-09-21T05:22:30.692Z,5.05
2022-09-21T05:24:34.059Z,5.93
2022-09-21T05:26:37.452Z,7.13
2022-09-21T05:28:41.286Z,8.02
2022-09-21T05:31:07.204Z,7.03
2022-09-21T05:33:12.458Z,8.73
2022-09-21T05:35:30.137Z,11.98
2022-09-21T05:37:47.002Z,11.00
2022-09-21T05:39:50.772Z,9.13
2022-09-21T05:41:55.118Z,9.60
2022-09-21T05:43:58.959Z,8.43
2022-09-21T05:46:06.543Z,3.90
2022-09-21T05:48:16.250Z,12.52
2022-09-21T05:50:32.219Z,3.70
2022-09-21T05:52:43.593Z,5.63
2022-09-21T05:54:58.214Z,9.80
2022-09-21T05:57:07.372Z,5.82
2022-09-21T05:59:35.462Z,5.07
2022-09-21T06:01:51.617Z,4.85
2022-09-21T06:03:57.078Z,5.10
2022-09-21T06:06:01.866Z,3.33
2022-09-21T06:08:05.203Z,2.80
2022-09-21T06:10:09.809Z,3.35
2022-09-21T06:12:13.068Z,2.88
2022-09-21T06:14:16.286Z,1.80
2022-09-21T06:16:20.040Z,1.75
2022-09-21T06:18:23.347Z,1.83
2022-09-21T06:20:26.971Z,2.28
2022-09-21T06:22:31.669Z,5.13
2022-09-21T06:24:34.892Z,4.80
2022-09-21T06:26:38.150Z,2.67
2022-09-21T06:28:41.467Z,4.18
2022-09-21T06:30:45.183Z,2.28
2022-09-21T06:32:48.532Z,2.38
2022-09-21T06:34:52.029Z,4.82
2022-09-21T06:36:55.670Z,4.32
2022-09-21T06:39:00.347Z,3.38
2022-09-21T06:41:04.555Z,9.60
2022-09-21T06:43:07.908Z,8.63
2022-09-21T06:45:11.953Z,3.63
2022-09-21T06:47:15.682Z,2.43
2022-09-21T06:49:19.059Z,15.03
2022-09-21T06:51:24.278Z,3.80
2022-09-21T06:53:28.006Z,5.13
2022-09-21T06:55:34.601Z,4.10
2022-09-21T06:57:38.914Z,2.90
2022-09-21T06:59:42.867Z,28.80
2022-09-21T07:01:46.694Z,8.10
2022-09-21T07:03:51.732Z,2.20
2022-09-21T07:05:55.103Z,3.23
2022-09-21T07:07:59.758Z,1.33
2022-09-21T07:10:05.559Z,4.73
2022-09-21T07:12:11.307Z,1.63
2022-09-21T07:14:15.661Z,1.60
2022-09-21T07:16:19.934Z,2.73
2022-09-21T07:18:23.616Z,1.40
2022-09-21T07:20:27.261Z,6.10
2022-09-21T07:22:31.440Z,1.00
2022-09-21T07:24:35.140Z,1.17
2022-09-21T07:26:38.781Z,1.20
2022-09-21T07:28:43.819Z,1.37
2022-09-21T07:30:47.368Z,1.20
2022-09-21T07:32:50.606Z,3.23
2022-09-21T07:34:56.480Z,1.53
2022-09-21T07:37:00.140Z,0.90
2022-09-21T07:39:03.765Z,1.20
2022-09-21T07:41:08.049Z,0.70
2022-09-21T07:43:11.649Z,1.07
2022-09-21T07:45:16.490Z,1.37
2022-09-21T07:47:20.064Z,1.43
2022-09-21T07:49:23.327Z,1.00
2022-09-21T07:51:26.722Z,2.00
2022-09-21T07:53:31.803Z,1.07
2022-09-21T07:55:35.388Z,1.77
2022-09-21T07:58:10.530Z,0.97
2022-09-21T08:00:16.084Z,0.90
2022-09-21T08:02:19.886Z,3.73
2022-09-21T08:04:23.643Z,0.80
2022-09-21T08:06:29.379Z,2.40
2022-09-21T08:08:32.602Z,1.37
2022-09-21T08:10:36.118Z,0.90
2022-09-21T08:12:39.553Z,1.00
2022-09-21T08:14:43.005Z,0.97
2022-09-21T08:16:48.227Z,0.77
2022-09-21T08:18:52.014Z,0.80
2022-09-21T08:20:56.603Z,1.27
2022-09-21T08:23:00.235Z,1.10
2022-09-21T08:25:03.879Z,1.40
2022-09-21T08:27:08.009Z,0.90
2022-09-21T08:29:12.260Z,0.93
2022-09-21T08:31:15.947Z,1.00
2022-09-21T08:33:20.912Z,0.80
2022-09-21T08:35:24.528Z,1.53
2022-09-21T08:37:27.915Z,1.33
2022-09-21T08:39:31.350Z,0.90
2022-09-21T08:41:42.625Z,1.60
2022-09-21T08:43:47.267Z,0.70
2022-09-21T08:45:50.623Z,0.70
2022-09-21T08:47:58.111Z,1.03
2022-09-21T08:50:05.293Z,0.70
2022-09-21T08:52:15.873Z,1.13
2022-09-21T08:54:28.357Z,1.27
2022-09-21T08:56:53.268Z,0.80
2022-09-21T08:58:56.441Z,1.03
2022-09-21T09:01:09.937Z,1.13
2022-09-21T09:03:28.453Z,1.00
2022-09-21T09:05:46.185Z,1.00
2022-09-21T09:08:06.571Z,1.20
2022-09-21T09:10:23.547Z,1.23
2022-09-21T09:12:44.144Z,1.13
2022-09-21T09:15:11.741Z,0.80
2022-09-21T09:17:37.527Z,2.37
2022-09-21T09:19:46.443Z,3.60
2022-09-21T09:21:51.114Z,1.17
2022-09-21T09:24:00.462Z,1.27
2022-09-21T09:26:09.190Z,0.80
2022-09-21T09:28:23.735Z,0.90
2022-09-21T09:30:28.362Z,1.00
2022-09-21T09:32:37.123Z,1.07
2022-09-21T09:34:43.536Z,1.30
2022-09-21T09:36:59.146Z,2.60
2022-09-21T09:39:12.890Z,2.43
2022-09-21T09:41:31.337Z,1.63
2022-09-21T09:43:49.262Z,1.80
2022-09-21T09:46:02.226Z,2.80
2022-09-21T09:48:20.042Z,1.33
2022-09-21T09:50:29.526Z,1.87
2022-09-21T09:52:33.647Z,1.00
2022-09-21T09:54:38.749Z,1.07
2022-09-21T09:56:42.180Z,1.37
2022-09-21T09:58:50.935Z,0.80
2022-09-21T10:00:57.690Z,1.30
2022-09-21T10:03:02.502Z,0.87
2022-09-21T10:05:07.136Z,1.20
2022-09-21T10:07:19.965Z,1.57
2022-09-21T10:09:28.114Z,0.93
2022-09-21T10:11:39.818Z,1.00
2022-09-21T10:13:44.522Z,0.70
2022-09-21T10:15:55.637Z,0.80
2022-09-21T10:18:04.409Z,1.47
2022-09-21T10:20:15.977Z,0.90
2022-09-21T10:22:22.764Z,1.13
2022-09-21T10:24:29.524Z,1.03
2022-09-21T10:26:35.861Z,2.00
2022-09-21T10:28:56.847Z,1.00
2022-09-21T10:31:12.297Z,0.80
2022-09-21T10:33:21.292Z,1.00
2022-09-21T10:35:25.296Z,1.50
2022-09-21T10:37:29.954Z,0.87
2022-09-21T10:39:33.921Z,1.10
2022-09-21T10:41:39.099Z,1.90
2022-09-21T10:43:44.635Z,1.20
2022-09-21T10:45:56.110Z,1.03
2022-09-21T10:48:08.050Z,1.20
2022-09-21T10:50:23.995Z,1.00
2022-09-21T10:52:28.245Z,1.17
2022-09-21T10:54:34.639Z,1.27
2022-09-21T10:56:38.040Z,1.00
2022-09-21T10:58:41.314Z,0.80
2022-09-21T11:00:48.190Z,0.90
2022-09-21T11:02:51.949Z,1.00
2022-09-21T11:05:00.399Z,1.87
2022-09-21T11:07:15.147Z,1.47
2022-09-21T11:09:23.650Z,0.80
2022-09-21T11:11:51.040Z,0.90
2022-09-21T11:14:01.271Z,1.00
2022-09-21T11:16:16.425Z,0.90
2022-09-21T11:18:23.847Z,1.47
2022-09-21T11:20:34.792Z,2.30
2022-09-21T11:22:45.215Z,0.83
2022-09-21T11:24:54.489Z,1.13
2022-09-21T11:27:04.043Z,1.37
2022-09-21T11:29:13.579Z,1.33
2022-09-21T11:31:45.230Z,1.63
2022-09-21T11:34:04.437Z,0.80
2022-09-21T11:36:15.698Z,0.90
2022-09-21T11:38:37.600Z,1.00
2022-09-21T11:41:07.227Z,0.80
2022-09-21T11:43:24.261Z,1.33
2022-09-21T11:45:51.167Z,0.90
2022-09-21T11:48:14.963Z,1.00
2022-09-21T11:50:47.827Z,1.93
2022-09-21T11:52:58.474Z,0.80
2022-09-21T11:55:32.792Z,2.17
2022-09-21T11:57:40.925Z,1.03
2022-09-21T12:00:00.970Z,0.70
2022-09-21T12:02:38.203Z,0.90
2022-09-21T12:04:50.359Z,1.50
2022-09-21T12:07:07.975Z,0.70
2022-09-21T12:09:30.016Z,1.03
2022-09-21T12:11:43.244Z,0.70
2022-09-21T12:13:51.894Z,0.90
2022-09-21T12:16:03.826Z,0.70
2022-09-21T12:18:11.009Z,2.30
2022-09-21T12:20:24.732Z,1.90
2022-09-21T12:22:30.993Z,1.97
2022-09-21T12:24:40.899Z,1.33
2022-09-21T12:26:47.862Z,0.70
2022-09-21T12:29:00.970Z,0.90
2022-09-21T12:31:06.423Z,0.70
2022-09-21T12:33:15.262Z,0.60
2022-09-21T12:35:26.417Z,0.80
2022-09-21T12:37:34.881Z,4.83
2022-09-21T12:39:41.755Z,2.30
2022-09-21T12:41:53.853Z,0.70
2022-09-21T12:44:00.314Z,0.73
2022-09-21T12:46:04.837Z,1.00
2022-09-21T12:48:16.781Z,2.03
2022-09-21T12:50:26.925Z,1.00
2022-09-21T12:52:31.059Z,1.33
2022-09-21T12:54:45.450Z,0.70
2022-09-21T12:56:56.920Z,0.77
2022-09-21T12:59:19.898Z,0.90
2022-09-21T13:01:33.307Z,0.60
2022-09-21T13:03:44.060Z,0.70
2022-09-21T13:06:06.578Z,0.90
2022-09-21T13:08:13.431Z,1.07
2022-09-21T13:10:20.304Z,0.70
2022-09-21T13:12:26.931Z,1.10
2022-09-21T13:14:34.842Z,1.43
2022-09-21T13:16:41.131Z,1.67
2022-09-21T13:18:44.523Z,1.77
2022-09-21T13:20:52.126Z,0.90
2022-09-21T13:23:01.451Z,0.83
2022-09-21T13:25:09.446Z,0.80
2022-09-21T13:27:13.910Z,0.90
2022-09-21T13:29:33.125Z,1.03
2022-09-21T13:31:57.583Z,2.17
2022-09-21T13:34:17.974Z,1.40
2022-09-21T13:36:37.856Z,0.70
2022-09-21T13:39:04.828Z,1.00
2022-09-21T13:41:45.447Z,1.47
2022-09-21T13:44:05.018Z,1.10
2022-09-21T13:46:09.058Z,0.70
2022-09-21T13:48:20.172Z,1.50
2022-09-21T13:50:26.558Z,0.90
2022-09-21T13:52:39.475Z,1.30
2022-09-21T13:54:50.625Z,1.10
2022-09-21T13:57:09.165Z,0.70
2022-09-21T13:59:26.201Z,1.83
2022-09-21T14:01:46.878Z,0.90
2022-09-21T14:03:54.784Z,2.10
2022-09-21T14:06:04.212Z,0.83
2022-09-21T14:08:31.639Z,0.90
2022-09-21T14:10:38.462Z,1.17
2022-09-21T14:12:48.583Z,1.33
2022-09-21T14:15:12.967Z,0.80
2022-09-21T14:17:35.650Z,0.90
2022-09-21T14:20:08.162Z,0.70
2022-09-21T14:22:33.887Z,1.07
2022-09-21T14:24:41.678Z,0.70
2022-09-21T14:27:00.296Z,0.80
2022-09-21T14:29:14.754Z,2.43
2022-09-21T14:31:22.208Z,0.80
2022-09-21T14:33:43.298Z,1.53
2022-09-21T14:35:48.874Z,2.50
2022-09-21T14:37:56.177Z,0.80
2022-09-21T14:40:05.861Z,1.10
2022-09-21T14:42:15.807Z,1.67
2022-09-21T14:44:21.860Z,2.10
2022-09-21T14:47:02.943Z,0.70
2022-09-21T14:49:23.130Z,2.03
2022-09-21T14:51:38.368Z,1.77
2022-09-21T14:54:24.056Z,1.00
2022-09-21T14:56:41.345Z,0.90
2022-09-21T14:58:57.192Z,0.90
2022-09-21T15:01:22.549Z,0.93
2022-09-21T15:03:56.148Z,1.00
2022-09-21T15:06:25.639Z,0.90
2022-09-21T15:09:05.901Z,1.03
2022-09-21T15:11:14.352Z,2.43
2022-09-21T15:13:48.058Z,1.20
2022-09-21T15:16:11.420Z,1.00
2022-09-21T15:18:21.912Z,1.10
2022-09-21T15:20:25.158Z,2.03
2022-09-21T15:22:29.206Z,1.33
2022-09-21T15:24:35.526Z,1.10
2022-09-21T15:26:41.073Z,0.90
2022-09-21T15:29:14.015Z,0.90
2022-09-21T15:31:15.376Z,0.70
2022-09-21T15:33:23.557Z,3.23
2022-09-21T15:35:29.378Z,1.00
2022-09-21T15:37:37.158Z,0.80
2022-09-21T15:39:41.416Z,2.97
2022-09-21T15:41:47.614Z,1.47
2022-09-21T15:43:58.179Z,2.53
2022-09-21T15:46:03.743Z,5.67
2022-09-21T15:48:14.002Z,3.67
2022-09-21T15:50:20.260Z,1.23
2022-09-21T15:52:31.574Z,0.97
2022-09-21T15:54:37.564Z,2.40
2022-09-21T15:56:46.124Z,1.07
2022-09-21T15:58:51.478Z,1.30
2022-09-21T16:00:58.057Z,1.43
2022-09-21T16:03:07.533Z,1.70
2022-09-21T16:05:16.161Z,1.20
2022-09-21T16:07:33.193Z,2.00
2022-09-21T16:09:45.153Z,2.37
2022-09-21T16:11:48.529Z,2.43
2022-09-21T16:14:23.200Z,1.50
2022-09-21T16:16:26.921Z,1.63
2022-09-21T16:18:35.883Z,1.93
2022-09-21T16:20:45.820Z,2.60
2022-09-21T16:22:51.471Z,5.13
2022-09-21T16:24:56.629Z,3.23
2022-09-21T16:27:01.785Z,2.90
2022-09-21T16:29:21.213Z,2.23
2022-09-21T16:31:36.227Z,3.20
2022-09-21T16:33:43.102Z,3.23
2022-09-21T16:35:46.540Z,4.80
2022-09-21T16:37:50.134Z,7.80
2022-09-21T16:39:54.052Z,8.30
2022-09-21T16:42:02.468Z,11.63
2022-09-21T16:44:06.031Z,12.10
2022-09-21T16:46:11.331Z,7.37
2022-09-21T16:48:14.929Z,5.60
2022-09-21T16:50:19.002Z,2.10
2022-09-21T16:52:23.146Z,4.20
2022-09-21T16:54:27.359Z,1.83
2022-09-21T16:56:32.614Z,2.80
2022-09-21T16:58:35.944Z,2.10
2022-09-21T17:00:42.551Z,2.10
2022-09-21T17:02:48.444Z,3.63
2022-09-21T17:04:52.006Z,2.40
2022-09-21T17:06:56.168Z,1.73
2022-09-21T17:09:00.565Z,2.43
2022-09-21T17:11:04.592Z,1.90
2022-09-21T17:13:09.124Z,3.23
2022-09-21T17:15:14.591Z,2.27
2022-09-21T17:17:20.109Z,1.57
2022-09-21T17:19:25.218Z,1.40
2022-09-21T17:21:28.598Z,2.10
2022-09-21T17:23:32.091Z,2.40
2022-09-21T17:25:37.081Z,3.40
2022-09-21T17:27:41.252Z,21.00
2022-09-21T17:29:48.313Z,29.83
2022-09-21T17:31:55.006Z,40.07
2022-09-21T17:33:58.578Z,52.83
2022-09-21T17:36:06.895Z,65.20
2022-09-21T17:38:14.140Z,45.60
2022-09-21T17:40:18.552Z,25.87
2022-09-21T17:42:25.204Z,18.00
2022-09-21T17:44:47.462Z,15.48
2022-09-21T17:46:55.865Z,10.00
2022-09-21T17:48:59.639Z,5.57
2022-09-21T17:51:05.081Z,4.35
2022-09-21T17:53:28.258Z,3.50
2022-09-21T17:55:32.269Z,5.53
2022-09-21T17:57:48.564Z,1.77
2022-09-21T17:59:55.785Z,2.60
2022-09-21T18:02:00.312Z,3.30
2022-09-21T18:04:04.761Z,1.33
2022-09-21T18:06:10.871Z,1.95
2022-09-21T18:08:14.742Z,1.80
2022-09-21T18:10:18.704Z,1.90
2022-09-21T18:12:55.467Z,2.38
2022-09-21T18:15:05.911Z,3.30
2022-09-21T18:17:32.867Z,2.35
2022-09-21T18:19:48.584Z,1.73
2022-09-21T18:21:58.221Z,1.03
2022-09-21T18:24:22.258Z,2.22
2022-09-21T18:26:26.769Z,1.00
2022-09-21T18:28:41.626Z,2.45
2022-09-21T18:30:49.891Z,1.65
2022-09-21T18:33:08.287Z,1.45
2022-09-21T18:35:38.893Z,0.90
2022-09-21T18:37:55.183Z,4.20
2022-09-21T18:40:11.283Z,1.42
2022-09-21T18:42:29.402Z,2.33
2022-09-21T18:44:37.625Z,1.30
2022-09-21T18:46:54.220Z,1.00
2022-09-21T18:49:03.966Z,2.30
2022-09-21T18:51:14.367Z,2.07
2022-09-21T18:53:25.596Z,1.30
2022-09-21T18:55:31.461Z,1.57
2022-09-21T18:57:35.656Z,1.27
2022-09-21T18:59:39.691Z,1.77
2022-09-21T19:01:43.570Z,1.27
2022-09-21T19:03:49.266Z,2.37
2022-09-21T19:06:22.309Z,2.65
2022-09-21T19:08:35.627Z,1.70
2022-09-21T19:10:40.145Z,1.67
2022-09-21T19:13:16.639Z,1.27
2022-09-21T19:15:48.721Z,2.77
2022-09-21T19:18:05.127Z,3.30
2022-09-21T19:20:24.403Z,3.78
2022-09-21T19:22:37.462Z,3.15
2022-09-21T19:24:47.147Z,1.27
2022-09-21T19:26:58.531Z,2.08
2022-09-21T19:29:35.251Z,1.02
2022-09-21T19:31:38.872Z,3.50
2022-09-21T19:33:51.219Z,1.35
2022-09-21T19:35:55.279Z,4.35
2022-09-21T19:38:01.553Z,1.73
2022-09-21T19:40:08.452Z,1.10
2022-09-21T19:42:21.123Z,1.37
2022-09-21T19:44:45.474Z,1.13
2022-09-21T19:46:58.623Z,0.88
2022-09-21T19:49:10.776Z,1.35
2022-09-21T19:51:19.825Z,1.10
2022-09-21T19:53:41.134Z,1.30
2022-09-21T19:56:03.849Z,1.98
2022-09-21T19:58:25.325Z,1.33
2022-09-21T20:00:29.107Z,1.80
2022-09-21T20:02:34.499Z,1.00
2022-09-21T20:04:46.149Z,0.90
2022-09-21T20:06:55.547Z,1.02
2022-09-21T20:09:06.431Z,0.90
2022-09-21T20:11:16.024Z,0.80
2022-09-21T20:13:29.314Z,2.27
2022-09-21T20:15:39.056Z,0.70
2022-09-21T20:17:46.621Z,1.75
2022-09-21T20:19:53.421Z,1.20
2022-09-21T20:22:00.513Z,1.63
2022-09-21T20:24:11.469Z,1.60
2022-09-21T20:26:24.486Z,1.10
2022-09-21T20:28:28.431Z,1.20
2022-09-21T20:30:34.239Z,1.23
2022-09-21T20:32:39.446Z,1.38
2022-09-21T20:34:46.326Z,0.90
2022-09-21T20:36:49.554Z,1.33
2022-09-21T20:38:56.833Z,1.20
2022-09-21T20:41:00.122Z,1.10
2022-09-21T20:43:05.514Z,3.42
2022-09-21T20:45:10.701Z,1.17
2022-09-21T20:47:14.041Z,1.02
2022-09-21T20:49:17.397Z,1.30
2022-09-21T20:51:21.085Z,1.08
2022-09-21T20:53:24.803Z,0.88
2022-09-21T20:55:29.281Z,2.03
2022-09-21T20:57:32.578Z,1.35
2022-09-21T20:59:37.262Z,2.55
2022-09-21T21:01:41.169Z,1.85
2022-09-21T21:03:44.727Z,1.05
2022-09-21T21:05:48.084Z,1.45
2022-09-21T21:07:52.089Z,1.20
2022-09-21T21:09:55.456Z,2.70
2022-09-21T21:11:59.194Z,1.70
2022-09-21T21:14:03.106Z,0.90
2022-09-21T21:16:12.220Z,1.80
2022-09-21T21:18:16.137Z,1.23
2022-09-21T21:20:19.789Z,1.23
2022-09-21T21:22:23.298Z,1.50
2022-09-21T21:24:41.101Z,1.23
2022-09-21T21:27:01.136Z,1.10
2022-09-21T21:29:06.467Z,1.33
2022-09-21T21:31:12.130Z,2.85
2022-09-21T21:33:15.298Z,1.40
2022-09-21T21:35:19.024Z,1.35
2022-09-21T21:37:24.640Z,0.90
2022-09-21T21:39:28.162Z,3.10
2022-09-21T21:41:32.660Z,1.10
2022-09-21T21:43:36.618Z,1.17
2022-09-21T21:45:39.917Z,1.73
2022-09-21T21:47:44.630Z,1.20
2022-09-21T21:49:48.458Z,1.50
2022-09-21T21:51:52.482Z,1.25
2022-09-21T21:53:55.657Z,2.55
2022-09-21T21:56:09.430Z,1.35
2022-09-21T21:58:13.057Z,0.90
2022-09-21T22:00:16.524Z,1.50
2022-09-21T22:02:20.155Z,2.88
2022-09-21T22:04:27.794Z,1.45
2022-09-21T22:06:32.590Z,1.50
2022-09-21T22:08:36.749Z,3.67
2022-09-21T22:10:39.914Z,3.40
2022-09-21T22:12:44.097Z,1.10
2022-09-21T22:14:47.830Z,4.72
2022-09-21T22:16:51.450Z,1.55
2022-09-21T22:18:54.906Z,1.27
2022-09-21T22:21:04.603Z,1.48
2022-09-21T22:23:09.109Z,1.70
2022-09-21T22:25:12.458Z,1.38
2022-09-21T22:27:16.470Z,0.98
2022-09-21T22:29:20.298Z,1.77
2022-09-21T22:31:27.598Z,1.75
2022-09-21T22:33:33.546Z,1.92
2022-09-21T22:35:37.099Z,1.55
2022-09-21T22:37:42.232Z,1.50
2022-09-21T22:39:45.501Z,2.65
2022-09-21T22:41:48.925Z,0.95
2022-09-21T22:43:54.444Z,2.95
2022-09-21T22:45:57.937Z,0.90
2022-09-21T22:48:01.594Z,1.60
2022-09-21T22:50:05.250Z,1.70
2022-09-21T22:52:08.539Z,1.45
2022-09-21T22:54:17.104Z,1.45
2022-09-21T22:56:22.801Z,2.60
2022-09-21T22:58:26.316Z,1.55
2022-09-21T23:00:29.991Z,2.20
2022-09-21T23:02:35.163Z,1.00
2022-09-21T23:04:38.745Z,1.45
2022-09-21T23:06:44.371Z,2.97
2022-09-21T23:08:50.271Z,3.00
2022-09-21T23:10:55.002Z,1.33
2022-09-21T23:12:58.330Z,1.00
2022-09-21T23:15:02.016Z,2.70
2022-09-21T23:17:05.568Z,2.75
2022-09-21T23:19:15.777Z,1.42
2022-09-21T23:21:20.557Z,4.00
2022-09-21T23:23:23.857Z,1.33
2022-09-21T23:25:27.187Z,2.55
2022-09-21T23:27:31.807Z,1.27
2022-09-21T23:29:35.032Z,1.23
2022-09-21T23:31:43.801Z,1.85
2022-09-21T23:33:49.364Z,0.70
2022-09-21T23:35:52.887Z,1.35
2022-09-21T23:37:56.433Z,7.55
2022-09-21T23:39:59.747Z,1.77
2022-09-21T23:42:06.414Z,1.00
2022-09-21T23:44:11.057Z,3.15
2022-09-21T23:46:17.722Z,1.75
2022-09-21T23:48:21.163Z,1.05
2022-09-21T23:50:24.585Z,1.17
2022-09-21T23:52:28.810Z,1.50
2022-09-21T23:54:32.151Z,1.70
2022-09-21T23:56:36.092Z,1.60
2022-09-21T23:58:39.587Z,0.90
